Time;durP1;ratioP1;P1;durP2;ratioP2;P2;SDS_P1;SDS_P2;PMS_P1;PMS_P2;Temp;Humidity;BMP_temperature;BMP_pressure;BME280_temperature;BME280_humidity;BME280_pressure;Samples;Min_cycle;Max_cycle;Signal;HPM_P1;HPM_P2
2021/09/18 00:01:22;;;;;;;13.10;7.77;;;12.90;1.00;;;;;;5017225;28;20403;-77
2021/09/18 00:04:40;;;;;;;13.07;7.43;;;12.80;1.00;;;;;;5032494;28;20455;-77
2021/09/18 00:07:23;;;;;;;16.47;7.30;;;12.80;1.00;;;;;;5030923;28;20419;-77
2021/09/18 00:10:10;;;;;;;13.00;7.83;;;12.70;1.00;;;;;;5016931;28;20429;-77
2021/09/18 00:12:36;;;;;;;12.40;6.97;;;12.70;1.00;;;;;;5017046;28;20398;-76
2021/09/18 00:15:11;;;;;;;21.60;8.33;;;12.70;1.00;;;;;;5020208;28;20814;-76
2021/09/18 00:18:22;;;;;;;13.07;8.00;;;12.70;1.00;;;;;;5028012;28;20400;-77
2021/09/18 00:20:48;;;;;;;12.47;7.17;;;;;;;;;;5017250;28;20384;-77
2021/09/18 00:23:34;;;;;;;13.70;7.30;;;12.60;1.00;;;;;;5020375;28;20414;-77
2021/09/18 00:26:04;;;;;;;12.90;7.90;;;12.60;1.00;;;;;;5036418;28;20488;-77
2021/09/18 00:28:35;;;;;;;12.37;7.53;;;12.50;1.00;;;;;;5036133;28;20521;-77
2021/09/18 00:31:11;;;;;;;12.70;6.97;;;12.60;1.00;;;;;;5037156;28;20403;-77
2021/09/18 00:33:46;;;;;;;10.07;7.40;;;12.60;1.00;;;;;;5036147;28;20743;-77
2021/09/18 00:36:34;;;;;;;13.83;8.37;;;12.60;1.00;;;;;;5028095;28;20487;-76
2021/09/18 00:39:00;;;;;;;13.67;9.53;;;12.60;1.00;;;;;;5031164;28;20420;-76
2021/09/18 00:42:04;;;;;;;12.80;7.93;;;12.70;1.00;;;;;;5023620;28;20417;-77
2021/09/18 00:45:16;;;;;;;11.57;7.40;;;12.70;1.00;;;;;;5036499;28;20394;-77
2021/09/18 00:47:42;;;;;;;17.87;7.23;;;12.70;1.00;;;;;;5024777;28;20455;-77
2021/09/18 00:50:41;;;;;;;13.17;7.40;;;12.70;1.00;;;;;;5035939;28;20423;-77
2021/09/18 00:53:23;;;;;;;14.03;8.40;;;;;;;;;;5036839;28;20195;-77
2021/09/18 00:56:00;;;;;;;12.43;7.63;;;12.70;1.00;;;;;;5035338;28;20458;-77
2021/09/18 00:58:41;;;;;;;19.63;8.43;;;12.60;1.00;;;;;;5027340;28;20526;-77
2021/09/18 01:01:40;;;;;;;16.10;7.90;;;12.60;1.00;;;;;;5021174;28;20400;-77
2021/09/18 01:07:27;;;;;;;16.80;7.40;;;12.50;1.00;;;;;;5024002;28;20415;-77
2021/09/18 01:13:17;;;;;;;14.87;6.97;;;12.50;1.00;;;;;;5015849;28;20176;-77
2021/09/18 01:15:58;;;;;;;12.30;7.87;;;12.50;1.00;;;;;;5016329;28;20459;-77
2021/09/18 01:25:08;;;;;;;10.93;7.20;;;12.40;1.00;;;;;;5031333;28;20406;-77
2021/09/18 01:28:16;;;;;;;15.60;8.03;;;12.30;1.00;;;;;;5034808;28;20469;-77
2021/09/18 01:30:53;;;;;;;14.83;6.83;;;;;;;;;;5015528;28;20485;-77
2021/09/18 01:34:04;;;;;;;12.80;7.53;;;12.30;1.00;;;;;;5015645;28;20406;-77
2021/09/18 01:36:30;;;;;;;12.77;7.73;;;12.30;1.00;;;;;;5015833;28;20440;-77
2021/09/18 01:39:28;;;;;;;23.50;7.70;;;12.30;1.00;;;;;;5030187;28;20454;-77
2021/09/18 01:48:41;;;;;;;11.47;7.33;;;12.20;1.00;;;;;;5034717;28;20411;-77
2021/09/18 01:51:28;;;;;;;12.10;6.70;;;12.20;1.00;;;;;;5035016;28;20391;-77
2021/09/18 01:57:16;;;;;;;15.40;8.10;;;12.20;1.00;;;;;;5034521;28;20426;-77
2021/09/18 01:59:47;;;;;;;19.73;7.50;;;12.20;1.00;;;;;;5026022;28;20982;-77
2021/09/18 02:05:34;;;;;;;12.77;7.63;;;12.10;1.00;;;;;;5034634;28;20426;-77
2021/09/18 02:08:11;;;;;;;14.60;7.90;;;12.10;1.00;;;;;;5020269;28;20419;-77
2021/09/18 02:10:58;;;;;;;17.80;7.97;;;12.10;1.00;;;;;;5035071;28;20171;-77
2021/09/18 02:17:16;;;;;;;12.90;8.17;;;12.10;1.00;;;;;;5034540;28;20766;-77
2021/09/18 02:19:53;;;;;;;25.53;7.90;;;12.10;1.00;;;;;;5033891;28;20411;-77
2021/09/18 02:25:41;;;;;;;11.63;7.10;;;12.00;1.00;;;;;;5034072;28;20394;-77
2021/09/18 02:28:46;;;;;;;14.00;8.23;;;12.00;1.00;;;;;;5033657;28;20378;-77
2021/09/18 02:31:16;;;;;;;15.53;8.07;;;12.00;1.00;;;;;;5034344;28;20386;-78
2021/09/18 02:37:04;;;;;;;15.13;8.10;;;11.90;1.00;;;;;;5033885;28;20422;-77
2021/09/18 02:40:10;;;;;;;13.07;8.07;;;11.90;1.00;;;;;;5033910;28;20788;-77
2021/09/18 02:49:29;;;;;;;12.73;7.80;;;11.80;1.00;;;;;;5033718;28;20420;-76
2021/09/18 02:51:58;;;;;;;11.93;8.03;;;11.70;1.00;;;;;;5034179;28;20391;-77
2021/09/18 02:54:47;;;;;;;16.00;7.80;;;11.70;1.00;;;;;;5033792;28;20449;-77
2021/09/18 02:57:13;;;;;;;11.40;7.50;;;11.60;1.00;;;;;;5034326;28;20383;-77
2021/09/18 02:59:39;;;;;;;13.93;9.10;;;11.70;1.00;;;;;;5017707;28;20419;-77
2021/09/18 03:02:10;;;;;;;12.00;7.53;;;11.60;1.00;;;;;;5019138;28;20460;-77
2021/09/18 03:04:58;;;;;;;18.70;9.43;;;11.60;1.00;;;;;;5034269;28;20188;-77
2021/09/18 03:07:52;;;;;;;17.20;7.97;;;11.50;1.00;;;;;;5021171;28;20412;-77
2021/09/18 03:10:18;;;;;;;16.53;8.20;;;11.50;1.00;;;;;;5030848;28;20403;-77
2021/09/18 03:12:44;;;;;;;11.77;7.43;;;;;;;;;;5017260;28;20469;-76
2021/09/18 03:15:11;;;;;;;12.60;7.77;;;11.50;1.00;;;;;;5022123;28;20546;-76
2021/09/18 03:17:52;;;;;;;15.60;7.30;;;11.50;1.00;;;;;;5027868;28;20413;-77
2021/09/18 03:20:35;;;;;;;17.40;8.70;;;11.40;1.00;;;;;;5027598;28;20807;-77
2021/09/18 03:23:16;;;;;;;22.53;8.43;;;11.40;1.00;;;;;;5034888;28;20407;-77
2021/09/18 03:26:16;;;;;;;19.50;8.50;;;11.40;1.00;;;;;;5037515;28;20431;-77
2021/09/18 03:28:42;;;;;;;18.63;8.50;;;11.40;1.00;;;;;;5037349;28;20395;-77
2021/09/18 03:31:11;;;;;;;22.27;9.07;;;11.30;1.00;;;;;;5037134;28;20553;-77
2021/09/18 03:33:46;;;;;;;16.13;8.67;;;11.30;1.00;;;;;;5037917;28;20168;-77
2021/09/18 03:36:23;;;;;;;13.53;8.40;;;11.30;1.00;;;;;;5036986;28;20468;-76
2021/09/18 03:38:48;;;;;;;12.40;8.80;;;11.30;1.00;;;;;;5037424;28;20411;-76
2021/09/18 03:41:23;;;;;;;14.43;9.03;;;11.20;1.00;;;;;;5037749;28;20921;-76
2021/09/18 03:47:29;;;;;;;19.23;8.97;;;11.10;1.00;;;;;;5037474;28;20413;-76
2021/09/18 03:53:16;;;;;;;13.97;8.37;;;11.10;1.00;;;;;;5037006;28;20425;-77
2021/09/18 03:59:28;;;;;;;15.33;7.87;;;11.00;1.00;;;;;;5029535;28;20207;-77
2021/09/18 04:05:16;;;;;;;16.00;9.20;;;11.00;1.00;;;;;;5016968;28;20418;-77
2021/09/18 04:07:47;;;;;;;20.70;8.90;;;10.90;1.00;;;;;;5022466;28;20427;-77
2021/09/18 04:10:17;;;;;;;16.23;8.83;;;10.90;1.00;;;;;;5017008;28;20226;-77
2021/09/18 04:13:10;;;;;;;12.70;8.03;;;10.90;1.00;;;;;;5031385;28;20414;-77
2021/09/18 04:15:36;;;;;;;11.57;7.80;;;11.00;1.00;;;;;;5035816;28;20465;-78
2021/09/18 04:18:02;;;;;;;12.73;7.40;;;11.00;1.00;;;;;;5036477;28;20866;-77
2021/09/18 04:21:16;;;;;;;34.27;8.70;;;11.00;1.00;;;;;;5035615;28;20179;-83
2021/09/18 04:27:46;;;;;;;21.73;8.50;;;11.00;1.00;;;;;;5036559;28;20737;-81
2021/09/18 04:33:34;;;;;;;38.23;8.93;;;11.00;1.00;;;;;;5036161;28;20477;-80
2021/09/18 04:40:02;;;;;;;16.70;8.57;;;11.00;1.00;;;;;;5035994;28;20436;-77
2021/09/18 04:43:16;;;;;;;20.20;8.97;;;11.10;1.00;;;;;;5035847;28;20468;-77
2021/09/18 04:45:42;;;;;;;20.97;8.23;;;11.00;1.00;;;;;;5036619;28;20372;-77
2021/09/18 04:51:31;;;;;;;16.73;9.67;;;11.00;1.00;;;;;;5035982;28;20222;-77
2021/09/18 05:04:02;;;;;;;23.10;9.03;;;11.00;1.00;;;;;;5033560;28;20944;-77
2021/09/18 05:06:52;;;;;;;18.67;10.10;;;11.00;1.00;;;;;;5032457;28;20439;-77
2021/09/18 05:12:40;;;;;;;27.83;9.77;;;10.90;1.00;;;;;;5035052;28;20419;-77
2021/09/18 05:15:46;;;;;;;18.40;8.97;;;10.90;1.00;;;;;;5036244;28;20447;-77
2021/09/18 05:18:40;;;;;;;15.90;9.40;;;10.90;1.00;;;;;;5036006;28;20160;-77
2021/09/18 05:21:06;;;;;;;18.00;9.43;;;10.90;1.00;;;;;;5018374;28;20419;-77
2021/09/18 05:23:41;;;;;;;28.93;9.57;;;11.00;1.00;;;;;;5023144;28;20415;-77
2021/09/18 05:29:28;;;;;;;20.03;10.50;;;11.10;1.00;;;;;;5035361;28;20394;-77
2021/09/18 05:35:15;;;;;;;44.57;10.93;;;11.40;1.00;;;;;;5035363;28;20680;-77
2021/09/18 05:47:46;;;;;;;45.60;11.13;;;11.80;1.00;;;;;;5033917;28;20437;-78
2021/09/18 05:50:52;;;;;;;61.60;11.83;;;11.90;1.00;;;;;;5035040;28;20447;-77
2021/09/18 05:53:23;;;;;;;62.37;11.63;;;12.10;1.00;;;;;;5035253;28;20533;-77
2021/09/18 05:56:16;;;;;;;71.60;11.47;;;12.20;1.00;;;;;;5034559;28;20512;-77
2021/09/18 05:59:28;;;;;;;83.37;13.73;;;12.30;1.00;;;;;;5028892;28;20404;-77
2021/09/18 06:01:59;;;;;;;89.10;12.93;;;12.50;1.00;;;;;;5017248;28;20427;-77
2021/09/18 06:04:35;;;;;;;62.00;12.00;;;12.50;1.00;;;;;;5034231;28;20917;-77
2021/09/18 06:07:22;;;;;;;65.50;13.57;;;12.80;1.00;;;;;;5026725;28;20434;-77
2021/09/18 06:13:16;;;;;;;63.30;12.73;;;13.00;1.00;;;;;;5034826;28;20376;-78
2021/09/18 06:16:35;;;;;;;46.03;13.33;;;13.20;1.00;;;;;;5034649;28;20447;-77
2021/09/18 06:19:28;;;;;;;84.97;14.60;;;13.30;1.00;;;;;;5034824;28;20651;-77
2021/09/18 06:22:12;;;;;;;80.67;14.93;;;13.50;1.00;;;;;;5034135;28;20407;-77
2021/09/18 06:24:42;;;;;;;80.97;14.87;;;13.60;1.00;;;;;;5034237;28;20390;-77
2021/09/18 06:27:28;;;;;;;174.13;18.60;;;13.80;1.00;;;;;;5034609;28;20369;-77
2021/09/18 06:29:59;;;;;;;129.70;17.73;;;14.00;1.00;;;;;;5034705;28;20392;-77
2021/09/18 06:32:26;;;;;;;171.57;17.77;;;14.00;1.00;;;;;;5033782;28;20407;-77
2021/09/18 06:38:17;;;;;;;63.90;15.20;;;14.20;1.00;;;;;;5033893;28;20433;-78
2021/09/18 06:47:26;;;;;;;54.80;13.70;;;14.60;1.00;;;;;;5033813;28;20400;-79
2021/09/18 06:50:22;;;;;;;26.13;13.80;;;14.70;1.00;;;;;;5027051;28;20431;-86
2021/09/18 06:59:31;;;;;;;28.10;13.70;;;14.70;1.00;;;;;;5020496;28;20933;-82
2021/09/18 07:05:19;;;;;;;103.57;16.57;;;14.90;1.00;;;;;;5024845;28;20204;-82
2021/09/18 07:14:29;;;;;;;44.13;17.20;;;15.20;1.00;;;;;;5033300;28;20403;-77
2021/09/18 07:20:16;;;;;;;37.03;19.80;;;15.40;1.00;;;;;;5033432;28;20210;-78
2021/09/18 07:26:04;;;;;;;50.47;23.97;;;15.40;1.00;;;;;;5033652;28;20168;-78
2021/09/18 07:28:35;;;;;;;47.00;25.03;;;15.50;1.00;;;;;;5033062;28;20398;-77
2021/09/18 07:31:34;;;;;;;42.73;23.57;;;15.50;1.00;;;;;;5033808;28;20207;-78
2021/09/18 07:34:22;;;;;;;43.20;22.97;;;15.50;1.00;;;;;;5033441;28;20441;-77
2021/09/18 07:40:12;;;;;;;37.57;22.70;;;15.70;1.00;;;;;;5032767;28;20397;-78
2021/09/18 07:42:37;;;;;;;35.40;20.97;;;15.80;1.00;;;;;;5032663;28;20371;-78
2021/09/18 07:45:04;;;;;;;37.00;18.87;;;15.80;1.00;;;;;;5019303;28;20390;-79
2021/09/18 07:47:30;;;;;;;31.13;19.10;;;15.90;1.00;;;;;;5012750;28;20232;-78
2021/09/18 07:49:56;;;;;;;36.67;19.10;;;;;;;;;;5023508;28;20394;-78
2021/09/18 07:52:40;;;;;;;34.20;17.53;;;16.20;1.00;;;;;;5032702;28;20181;-78
2021/09/18 07:58:41;;;;;;;27.93;17.30;;;16.40;1.00;;;;;;5028663;28;20427;-77
2021/09/18 08:01:34;;;;;;;22.60;15.20;;;16.50;1.00;;;;;;5018629;28;20932;-76
2021/09/18 08:04:52;;;;;;;24.77;15.97;;;16.50;1.00;;;;;;5029709;28;20436;-77
2021/09/18 08:07:46;;;;;;;24.43;15.60;;;16.60;1.00;;;;;;5030758;28;20440;-78
2021/09/18 08:10:52;;;;;;;25.00;16.10;;;16.70;1.00;;;;;;5034490;28;20461;-78
2021/09/18 08:13:23;;;;;;;23.47;15.17;;;16.70;1.00;;;;;;5025606;28;20415;-78
2021/09/18 08:16:40;;;;;;;21.23;14.70;;;16.70;1.00;;;;;;5016824;28;20430;-78
2021/09/18 08:22:28;;;;;;;24.50;15.43;;;16.90;1.00;;;;;;5037579;28;20379;-78
2021/09/18 08:24:54;;;;;;;22.57;15.53;;;17.00;1.00;;;;;;5035833;28;20419;-78
2021/09/18 08:27:20;;;;;;;25.00;16.50;;;17.10;1.00;;;;;;5019455;28;20538;-78
2021/09/18 08:33:11;;;;;;;25.97;16.00;;;17.30;1.00;;;;;;5035456;28;20477;-78
2021/09/18 08:35:53;;;;;;;23.47;14.50;;;17.30;1.00;;;;;;5036554;28;20577;-77
2021/09/18 08:38:24;;;;;;;31.47;15.40;;;17.30;1.00;;;;;;5020991;28;20401;-76
2021/09/18 08:41:06;;;;;;;25.23;15.83;;;17.30;1.00;;;;;;5036206;28;20405;-75
2021/09/18 08:43:32;;;;;;;27.80;16.37;;;17.40;1.00;;;;;;5035926;28;20930;-74
2021/09/18 08:45:59;;;;;;;30.50;15.50;;;17.60;1.00;;;;;;5036422;28;20609;-74
2021/09/18 08:48:26;;;;;;;24.63;14.53;;;17.70;1.00;;;;;;5036387;28;20162;-75
2021/09/18 08:50:52;;;;;;;23.90;16.93;;;17.80;1.00;;;;;;5035824;28;20966;-75
2021/09/18 08:53:20;;;;;;;24.93;14.87;;;17.90;1.00;;;;;;5036454;28;20433;-74
2021/09/18 08:55:59;;;;;;;22.33;15.87;;;18.00;1.00;;;;;;5016158;28;20453;-74
2021/09/18 08:58:25;;;;;;;23.10;14.73;;;18.10;1.00;;;;;;5018485;28;20419;-77
2021/09/18 09:00:54;;;;;;;25.60;16.20;;;18.20;1.00;;;;;;5024051;28;20424;-76
2021/09/18 09:03:36;;;;;;;28.77;16.23;;;18.40;1.00;;;;;;5026653;28;20449;-77
2021/09/18 09:06:08;;;;;;;31.13;18.20;;;18.40;1.00;;;;;;5018536;28;20797;-77
2021/09/18 09:08:37;;;;;;;31.07;18.40;;;18.50;1.00;;;;;;5028791;28;20411;-77
2021/09/18 09:11:19;;;;;;;31.27;18.10;;;18.50;1.00;;;;;;5018313;28;20434;-78
2021/09/18 09:14:05;;;;;;;34.20;18.20;;;18.70;1.00;;;;;;5017131;28;20361;-79
2021/09/18 09:19:54;;;;;;;28.20;17.70;;;18.90;1.00;;;;;;5034891;28;20405;-77
2021/09/18 09:22:50;;;;;;;39.93;20.03;;;19.00;1.00;;;;;;5032810;28;20423;-80
2021/09/18 09:25:31;;;;;;;34.03;20.67;;;19.00;1.00;;;;;;5034641;28;20438;-80
2021/09/18 09:28:40;;;;;;;40.30;19.37;;;19.10;1.00;;;;;;5035024;28;20426;-79
2021/09/18 09:31:18;;;;;;;33.20;18.30;;;19.20;1.00;;;;;;5033902;28;20488;-79
2021/09/18 09:34:03;;;;;;;33.87;20.63;;;19.30;1.00;;;;;;5034183;28;20975;-79
2021/09/18 09:36:55;;;;;;;32.80;20.20;;;19.40;1.00;;;;;;5035165;28;20450;-76
2021/09/18 09:39:27;;;;;;;28.93;18.87;;;19.50;1.00;;;;;;5035367;28;20424;-76
2021/09/18 09:41:57;;;;;;;24.33;15.87;;;;;;;;;;5034807;28;20448;-76
2021/09/18 09:44:32;;;;;;;34.40;20.77;;;19.60;1.00;;;;;;5034925;28;20400;-76
2021/09/18 09:47:09;;;;;;;33.87;19.40;;;19.70;1.00;;;;;;5035176;28;20490;-76
2021/09/18 09:49:47;;;;;;;30.33;18.87;;;19.80;1.00;;;;;;5035006;28;20388;-77
2021/09/18 09:52:35;;;;;;;37.23;19.17;;;20.00;1.00;;;;;;5035343;28;20480;-79
2021/09/18 09:55:12;;;;;;;28.00;17.53;;;20.10;1.00;;;;;;5032930;28;20467;-78
2021/09/18 09:57:57;;;;;;;31.30;19.47;;;20.20;1.00;;;;;;5034775;28;20810;-79
2021/09/18 10:04:34;;;;;;;32.40;21.27;;;20.40;1.00;;;;;;5014839;28;20912;-78
2021/09/18 10:07:01;;;;;;;44.63;22.37;;;20.40;1.00;;;;;;5022793;28;20450;-76
2021/09/18 10:09:27;;;;;;;38.23;23.17;;;20.50;1.00;;;;;;5026816;28;20411;-75
2021/09/18 10:11:56;;;;;;;39.77;25.00;;;20.60;1.00;;;;;;5033182;28;20416;-76
2021/09/18 10:14:25;;;;;;;37.80;23.57;;;20.60;1.00;;;;;;5034016;28;20466;-76
2021/09/18 10:17:10;;;;;;;41.10;24.27;;;20.60;1.00;;;;;;5034499;28;20405;-76
2021/09/18 10:25:06;;;;;;;46.13;26.07;;;20.90;1.00;;;;;;5028111;28;20425;-76
2021/09/18 10:27:57;;;;;;;51.93;28.43;;;20.90;1.00;;;;;;5021042;28;20589;-75
2021/09/18 10:30:35;;;;;;;52.67;26.50;;;21.00;1.00;;;;;;5034264;28;20868;-76
2021/09/18 10:33:38;;;;;;;43.57;27.37;;;21.00;1.00;;;;;;5032973;28;20422;-76
2021/09/18 10:36:29;;;;;;;49.33;25.43;;;21.10;1.00;;;;;;5050951;28;20514;-76
2021/09/18 10:39:16;;;;;;;42.13;24.20;;;21.10;1.00;;;;;;5051667;28;20989;-75
2021/09/18 10:41:54;;;;;;;47.27;27.30;;;21.20;1.00;;;;;;5051677;28;20871;-76
2021/09/18 10:44:23;;;;;;;54.87;29.77;;;21.20;1.00;;;;;;5036150;28;20483;-76
2021/09/18 10:46:58;;;;;;;45.83;27.23;;;21.40;1.00;;;;;;5031764;28;20430;-75
2021/09/18 10:49:37;;;;;;;47.60;26.63;;;;;;;;;;5031712;28;20398;-76
2021/09/18 10:52:35;;;;;;;43.77;26.20;;;21.60;1.00;;;;;;5051434;28;20432;-78
2021/09/18 11:05:07;;;;;;;41.80;24.40;;;21.80;1.00;;;;;;5049444;28;20462;-78
2021/09/18 11:08:10;;;;;;;42.50;23.87;;;21.90;1.00;;;;;;5051421;28;20564;-77
2021/09/18 11:10:36;;;;;;;46.73;23.00;;;;;;;;;;5035727;28;20508;-78
2021/09/18 11:13:19;;;;;;;47.37;24.47;;;;;;;;;;5022713;28;20383;-77
2021/09/18 11:19:53;;;;;;;44.30;24.00;;;22.60;1.00;;;;;;5031529;28;20777;-80
2021/09/18 11:22:41;;;;;;;47.57;25.07;;;22.80;1.00;;;;;;5029692;28;20430;-78
2021/09/18 11:25:45;;;;;;;41.10;23.53;;;22.90;1.00;;;;;;5032558;28;20841;-77
2021/09/18 11:28:34;;;;;;;35.80;22.50;;;22.90;1.00;;;;;;5033628;28;21023;-77
2021/09/18 11:31:01;;;;;;;41.80;23.23;;;;;;;;;;5027080;28;20420;-77
2021/09/18 11:33:49;;;;;;;43.93;24.57;;;23.00;1.00;;;;;;5025852;28;20413;-77
2021/09/18 11:36:23;;;;;;;49.80;24.80;;;23.10;1.00;;;;;;5028406;28;20453;-77
2021/09/18 11:38:49;;;;;;;40.13;22.40;;;23.20;1.00;;;;;;5019768;28;20452;-77
2021/09/18 11:41:46;;;;;;;39.67;20.80;;;23.30;1.00;;;;;;5015897;28;20452;-77
2021/09/18 11:44:33;;;;;;;33.13;21.57;;;23.20;1.00;;;;;;5031931;28;20546;-77
2021/09/18 11:47:03;;;;;;;33.90;20.60;;;23.30;1.00;;;;;;5035782;28;20918;-77
2021/09/18 11:50:16;;;;;;;36.77;19.60;;;23.30;1.00;;;;;;5034013;28;20424;-76
2021/09/18 11:53:06;;;;;;;31.10;18.50;;;23.50;1.00;;;;;;5025123;28;20914;-76
2021/09/18 11:55:41;;;;;;;22.70;15.77;;;23.60;1.00;;;;;;5036841;28;20450;-76
2021/09/18 11:58:28;;;;;;;31.03;17.70;;;23.60;1.00;;;;;;5022477;28;20528;-76
2021/09/18 12:01:02;;;;;;;21.17;14.37;;;23.50;1.00;;;;;;5036875;28;20472;-76
2021/09/18 12:03:38;;;;;;;25.50;17.07;;;23.50;1.00;;;;;;5037193;28;20388;-76
2021/09/18 12:06:10;;;;;;;27.23;17.77;;;23.60;1.00;;;;;;5034207;28;20475;-76
2021/09/18 12:08:42;;;;;;;28.60;18.10;;;23.70;1.00;;;;;;5025836;28;20768;-77
2021/09/18 12:11:23;;;;;;;24.83;17.00;;;23.60;1.00;;;;;;5036006;28;20418;-76
2021/09/18 12:17:17;;;;;;;17.57;11.20;;;23.60;1.00;;;;;;5016766;28;20413;-76
2021/09/18 12:23:11;;;;;;;22.07;14.53;;;23.60;1.00;;;;;;5036066;28;20949;-76
2021/09/18 12:26:03;;;;;;;25.10;12.70;;;23.60;1.00;;;;;;5033801;28;20418;-76
2021/09/18 12:32:10;;;;;;;21.73;12.00;;;23.70;1.00;;;;;;5035908;28;20436;-76
2021/09/18 12:38:17;;;;;;;16.43;11.83;;;23.60;1.00;;;;;;5035879;28;20401;-76
2021/09/18 12:40:49;;;;;;;21.43;13.77;;;23.60;1.00;;;;;;5015817;28;20415;-76
2021/09/18 12:43:23;;;;;;;14.97;10.27;;;23.60;1.00;;;;;;5031494;28;20413;-76
2021/09/18 12:46:14;;;;;;;19.70;13.03;;;23.70;1.00;;;;;;5035575;28;21051;-76
2021/09/18 12:49:28;;;;;;;13.10;9.47;;;23.70;1.00;;;;;;5036490;28;20879;-76
2021/09/18 12:52:05;;;;;;;12.30;8.40;;;24.00;1.00;;;;;;5035690;28;20468;-76
2021/09/18 12:55:01;;;;;;;9.27;6.50;;;24.10;1.00;;;;;;5018713;28;20842;-76
2021/09/18 12:57:33;;;;;;;12.23;8.90;;;24.10;1.00;;;;;;5032860;28;20425;-78
2021/09/18 13:00:17;;;;;;;13.93;8.50;;;24.20;1.00;;;;;;5034381;28;20413;-78
2021/09/18 13:06:22;;;;;;;9.63;7.00;;;24.30;1.00;;;;;;5035270;28;20430;-78
2021/09/18 13:09:04;;;;;;;8.33;6.40;;;24.30;1.00;;;;;;5020844;28;20439;-79
2021/09/18 13:12:16;;;;;;;20.50;7.70;;;24.30;1.00;;;;;;5033199;28;20481;-77
2021/09/18 13:15:11;;;;;;;10.60;7.23;;;24.30;1.00;;;;;;5016805;28;20813;-76
2021/09/18 13:17:53;;;;;;;7.40;6.57;;;;;;;;;;5026773;28;20405;-76
2021/09/18 13:24:05;;;;;;;7.60;6.07;;;24.80;1.00;;;;;;5034977;28;20453;-77
2021/09/18 13:26:58;;;;;;;9.90;8.13;;;24.90;1.00;;;;;;5034528;28;20472;-78
2021/09/18 13:29:58;;;;;;;6.97;5.60;;;25.00;1.00;;;;;;5035309;28;20390;-78
2021/09/18 13:32:59;;;;;;;11.30;7.63;;;24.90;1.00;;;;;;5026275;28;20460;-78
2021/09/18 13:38:46;;;;;;;8.50;5.70;;;25.00;1.00;;;;;;5023472;28;20441;-78
2021/09/18 13:41:13;;;;;;;8.70;7.07;;;25.20;1.00;;;;;;5028251;28;20414;-78
2021/09/18 13:43:59;;;;;;;7.47;5.73;;;25.10;1.00;;;;;;5015933;28;20181;-76
2021/09/18 13:46:58;;;;;;;7.97;6.60;;;25.20;1.00;;;;;;5015082;28;20480;-77
2021/09/18 13:49:35;;;;;;;7.07;5.60;;;25.30;1.00;;;;;;5015039;28;20491;-76
2021/09/18 13:52:11;;;;;;;8.20;6.73;;;25.30;1.00;;;;;;5017913;28;20430;-76
2021/09/18 13:54:42;;;;;;;6.50;5.60;;;;;;;;;;5026818;28;20418;-77
2021/09/18 13:57:08;;;;;;;10.90;6.80;;;25.30;1.00;;;;;;5013968;28;20419;-77
2021/09/18 13:59:52;;;;;;;14.10;7.20;;;25.30;1.00;;;;;;5028250;28;20410;-77
2021/09/18 14:02:19;;;;;;;10.30;5.83;;;25.40;1.00;;;;;;5035000;28;20401;-77
2021/09/18 14:04:45;;;;;;;7.43;5.30;;;25.40;1.00;;;;;;5034043;28;20425;-76
2021/09/18 14:07:10;;;;;;;8.30;5.83;;;25.50;1.00;;;;;;5034075;28;20428;-77
2021/09/18 14:09:41;;;;;;;7.97;6.70;;;25.50;1.00;;;;;;5034670;28;20164;-77
2021/09/18 14:12:07;;;;;;;10.50;7.00;;;25.50;1.00;;;;;;5034612;28;20618;-77
2021/09/18 14:14:47;;;;;;;9.40;6.13;;;25.50;1.00;;;;;;5030580;28;20452;-76
2021/09/18 14:17:41;;;;;;;12.03;5.60;;;25.40;1.00;;;;;;5022425;28;20639;-76
2021/09/18 14:20:11;;;;;;;7.13;5.60;;;25.40;1.00;;;;;;5021830;28;20417;-77
2021/09/18 14:26:46;;;;;;;7.10;5.40;;;25.30;1.00;;;;;;5026145;28;20458;-78
2021/09/18 14:29:23;;;;;;;8.30;5.20;;;25.30;1.00;;;;;;5034324;28;20396;-79
2021/09/18 14:31:49;;;;;;;5.03;4.53;;;25.20;1.00;;;;;;5033901;28;20401;-78
2021/09/18 14:34:23;;;;;;;7.47;6.20;;;25.10;1.00;;;;;;5033355;28;20433;-77
2021/09/18 14:36:49;;;;;;;10.50;6.30;;;25.10;1.00;;;;;;5034059;28;20217;-76
2021/09/18 14:39:15;;;;;;;9.60;6.00;;;25.00;1.00;;;;;;5026077;28;20417;-77
2021/09/18 14:41:42;;;;;;;5.93;5.03;;;25.10;1.00;;;;;;5014335;28;20195;-77
2021/09/18 14:44:11;;;;;;;8.53;6.67;;;25.10;1.00;;;;;;5015188;28;20171;-77
2021/09/18 14:46:53;;;;;;;8.53;5.50;;;25.10;1.00;;;;;;5030449;28;20920;-77
2021/09/18 14:49:29;;;;;;;6.23;5.37;;;25.10;1.00;;;;;;5034108;28;20397;-77
2021/09/18 14:51:55;;;;;;;8.10;5.13;;;25.00;1.00;;;;;;5033999;28;20428;-77
2021/09/18 14:54:29;;;;;;;9.50;6.33;;;24.90;1.00;;;;;;5034339;28;20527;-78
2021/09/18 14:57:05;;;;;;;11.00;6.23;;;24.90;1.00;;;;;;5032400;28;20193;-77
2021/09/18 14:59:35;;;;;;;12.53;6.43;;;25.00;1.00;;;;;;5034100;28;20414;-77
2021/09/18 15:02:05;;;;;;;12.80;5.77;;;25.00;1.00;;;;;;5034052;28;20471;-77
2021/09/18 15:04:41;;;;;;;6.50;5.80;;;25.00;1.00;;;;;;5033635;28;20398;-77
2021/09/18 15:07:06;;;;;;;5.93;5.23;;;25.10;1.00;;;;;;5033678;28;20532;-79
2021/09/18 15:09:59;;;;;;;7.60;5.73;;;25.20;1.00;;;;;;5033443;28;20956;-78
2021/09/18 15:12:53;;;;;;;5.33;4.83;;;25.60;1.00;;;;;;5033243;28;20171;-78
2021/09/18 15:18:59;;;;;;;6.50;4.47;;;27.00;1.00;;;;;;5019136;28;20956;-78
2021/09/18 15:21:58;;;;;;;5.97;5.30;;;26.80;1.00;;;;;;5036347;28;20896;-78
2021/09/18 15:24:59;;;;;;;4.93;4.43;;;27.20;1.00;;;;;;5024368;28;20796;-78
2021/09/18 15:27:58;;;;;;;5.43;4.93;;;27.70;1.00;;;;;;5017692;28;20881;-78
2021/09/18 15:30:58;;;;;;;5.40;4.33;;;27.90;1.00;;;;;;5018108;28;20428;-78
2021/09/18 15:33:52;;;;;;;4.57;3.80;;;28.50;1.00;;;;;;5019978;28;20409;-78
2021/09/18 15:36:29;;;;;;;4.60;4.20;;;29.30;1.00;;;;;;5017464;28;20441;-78
2021/09/18 15:39:23;;;;;;;4.70;4.03;;;29.80;99.90;;;;;;5017383;28;20391;-79
2021/09/18 15:41:49;;;;;;;3.77;3.47;;;30.00;99.90;;;;;;5017535;28;20386;-79
2021/09/18 15:44:15;;;;;;;4.03;3.60;;;30.60;99.90;;;;;;5017733;28;20759;-83
2021/09/18 15:46:53;;;;;;;4.27;3.87;;;31.60;99.90;;;;;;5017354;28;20179;-83
2021/09/18 15:49:58;;;;;;;4.50;3.57;;;32.00;99.90;;;;;;5017352;28;20404;-83
2021/09/18 15:52:24;;;;;;;5.33;3.80;;;32.70;99.90;;;;;;5017231;28;20427;-83
2021/09/18 15:54:53;;;;;;;4.07;3.37;;;33.10;99.90;;;;;;5015652;28;20446;-82
2021/09/18 15:57:19;;;;;;;8.90;3.43;;;33.40;99.90;;;;;;5030331;28;20168;-83
2021/09/18 16:00:28;;;;;;;4.73;3.53;;;33.60;99.90;;;;;;5034832;28;20415;-82
2021/09/18 16:03:28;;;;;;;3.40;3.10;;;33.80;99.90;;;;;;5036964;28;20683;-82
2021/09/18 16:05:59;;;;;;;4.60;3.17;;;34.10;99.90;;;;;;5034264;28;20402;-82
2021/09/18 16:08:58;;;;;;;3.90;2.77;;;34.20;99.90;;;;;;5017011;28;20432;-82
2021/09/18 16:11:42;;;;;;;2.93;2.80;;;;;;;;;;5030114;28;20465;-82
2021/09/18 16:14:17;;;;;;;4.50;2.93;;;;;;;;;;5036900;28;20387;-82
2021/09/18 16:16:59;;;;;;;3.80;3.40;;;;;;;;;;5024799;28;20435;-86
2021/09/18 16:19:58;;;;;;;3.13;2.93;;;33.60;99.90;;;;;;5034880;28;20426;-85
2021/09/18 16:25:53;;;;;;;3.43;3.10;;;;;;;;;;5016595;28;20489;-86
2021/09/18 16:28:47;;;;;;;3.03;2.73;;;;;;;;;;5036560;28;20797;-85
2021/09/18 16:31:41;;;;;;;3.23;3.03;;;30.40;99.90;;;;;;5034618;28;20423;-86
2021/09/18 16:34:53;;;;;;;3.90;3.57;;;29.80;99.90;;;;;;5022576;28;20518;-86
2021/09/18 16:37:59;;;;;;;4.00;3.47;;;28.90;99.90;;;;;;5015590;28;20514;-84
2021/09/18 16:40:59;;;;;;;3.90;3.50;;;28.10;99.90;;;;;;5020693;28;20454;-85
2021/09/18 16:50:10;;;;;;;8.10;4.13;;;;;;;;;;5036471;28;20406;-88
2021/09/18 16:59:46;;;;;;;5.50;4.33;;;;;;;;;;5036473;28;20481;-83
2021/09/18 17:05:34;;;;;;;12.73;4.43;;;22.60;1.00;;;;;;5035687;28;20456;-81
2021/09/18 17:08:01;;;;;;;5.77;4.67;;;22.30;1.00;;;;;;5035307;28;20813;-81
2021/09/18 17:13:49;;;;;;;7.50;5.27;;;21.50;1.00;;;;;;5023633;28;22184;-77
2021/09/18 17:22:59;;;;;;;6.63;4.67;;;20.50;1.00;;;;;;5017910;28;21034;-81
2021/09/18 17:25:25;;;;;;;9.83;4.53;;;20.20;1.00;;;;;;5034198;28;20457;-81
2021/09/18 17:27:59;;;;;;;6.40;5.00;;;20.00;1.00;;;;;;5034566;28;20176;-81
2021/09/18 17:30:29;;;;;;;7.77;4.87;;;19.70;1.00;;;;;;5035294;28;20179;-81
2021/09/18 17:32:59;;;;;;;16.13;5.80;;;19.50;1.00;;;;;;5034628;28;20454;-80
2021/09/18 17:38:54;;;;;;;10.97;4.73;;;;;;;;;;5031004;28;20417;-83
2021/09/18 17:44:41;;;;;;;17.70;5.87;;;;;;;;;;5034719;28;20873;-81
2021/09/18 17:50:41;;;;;;;7.90;5.63;;;18.20;1.00;;;;;;5019131;28;20486;-83
2021/09/18 17:56:29;;;;;;;13.97;5.93;;;17.90;1.00;;;;;;5034001;28;20472;-76
2021/09/18 17:58:59;;;;;;;6.50;5.27;;;17.80;1.00;;;;;;5033875;28;20425;-77
2021/09/18 18:01:59;;;;;;;8.33;5.47;;;17.60;1.00;;;;;;5024212;28;20399;-77
2021/09/18 18:04:37;;;;;;;10.90;6.67;;;17.40;1.00;;;;;;5017759;28;20422;-77
2021/09/18 18:07:41;;;;;;;12.97;6.23;;;17.30;1.00;;;;;;5015046;28;20466;-79
2021/09/18 18:10:11;;;;;;;11.73;5.93;;;17.20;1.00;;;;;;5019420;28;20440;-75